Ana Sayfa
METAR-TAF:

METAR-TAF

Havaalanları :

Tegel Havalimanı

Berlin, Almanya

Enlem: 52-34N, Boylam: 013-19E, yükseklik: 37 m

Güncel hava durumu gözlemi

Rapor saat 06:50 UTC de 17 dakika önce yapıldı.
Rüzgar değişken yönden 2 kt
Sıcaklık 12°C
Nem 71%
Basınç 1024 hPa
Görüş mesafesi 10 km veya daha fazla
1500 m altında bulut yok ve kümülonimbus yok

METAR: EDDT 210650Z VRB02KT CAVOK 12/07 Q1024 NOSIG

Saat: 09:07 (07:07 UTC)

Tahmin

Rapor saat 05:00 UTC de 2 saat ve 7 dakika önce yapıldı.
Ayın 21'si saat 06 UTC'den ayın 22'si saat 06 UTC'ye kadar geçerli Tahmin
Rüzgar güneybatıdan 5 kt
Görüş mesafesi 10 km veya daha fazla
1500 m altında bulut yok ve kümülonimbus yok
Dönüşüyor
ayın 21'si saat 15 UTC'den ayın 21'si saat 17 UTC'ye kadar
Rüzgar doğu/güneydoğudan 4 kt

TAF: EDDT 210500Z 2106/2206 23005KT CAVOK BECMG 2115/2117 11004KT

4.000'den fazla havaalanı için hava durumu gözlemleri ve tahminleri (METAR ve TAF raporları).

Kullanılabilir istasyonlar harita üzerinde sarı ve kırmızı noktalarla gösterilir.

İstasyonun adını görmek için fareyi noktanın üzerinde gezdirin.

Sonrasında hava gözlem ve tahminlerini görmek için tıklayın.

Haritayı değiştirmek için: yaklaştırmak için siyah artı işaretli yeşil düğmeye ve uzaklaştırmak için de eksi işaretli düğmeye hızla tıklayın; bitişik haritalar için yeşil okları kullanın.


METAR-TAF: